Time;durP1;ratioP1;P1;durP2;ratioP2;P2;SDS_P1;SDS_P2;PMS_P1;PMS_P2;Temp;Humidity;BMP_temperature;BMP_pressure;BME280_temperature;BME280_humidity;BME280_pressure;Samples;Min_cycle;Max_cycle;Signal;HPM_P1;HPM_P2
2021/11/13 00:15:53;;;;;;;17.67;13.85;;;3.20;99.90;;;;;;7351510;19;20674;-82
2021/11/13 00:18:22;;;;;;;13.38;11.32;;;3.10;99.90;;;;;;7367411;19;20316;-82
2021/11/13 00:20:57;;;;;;;17.63;13.40;;;3.20;99.90;;;;;;7268032;19;2004482;-82
2021/11/13 00:23:27;;;;;;;13.82;10.80;;;3.20;99.90;;;;;;7352907;19;20893;-82
2021/11/13 00:26:01;;;;;;;13.75;11.27;;;3.30;99.90;;;;;;7327119;19;20341;-82
2021/11/13 00:28:51;;;;;;;11.23;9.82;;;3.20;99.90;;;;;;7231517;19;2004443;-82
2021/11/13 00:31:23;;;;;;;12.00;9.82;;;3.30;99.90;;;;;;7348397;19;20332;-82
2021/11/13 00:33:58;;;;;;;14.35;10.70;;;3.20;99.90;;;;;;7357154;19;20332;-82
2021/11/13 01:01:09;;;;;;;10.23;8.70;;;3.20;99.90;;;;;;7336302;19;20320;-81
2021/11/13 01:57:46;;;;;;;11.23;9.38;;;2.70;99.90;;;;;;7337243;19;20336;-81
2021/11/13 02:00:33;;;;;;;16.58;12.85;;;2.80;99.90;;;;;;7324765;19;20329;-81
2021/11/13 02:03:10;;;;;;;11.90;9.73;;;2.70;99.90;;;;;;7318964;19;20419;-81
2021/11/13 02:18:15;;;;;;;13.63;10.30;;;2.90;99.90;;;;;;7352694;19;20328;-81
2021/11/13 02:20:44;;;;;;;10.40;8.95;;;2.90;99.90;;;;;;7359603;19;20396;-81
2021/11/13 02:23:19;;;;;;;14.85;11.95;;;2.90;99.90;;;;;;7353658;19;20329;-81
2021/11/13 02:28:54;;;;;;;12.45;9.55;;;2.90;99.90;;;;;;7353356;19;20871;-81
2021/11/13 02:31:43;;;;;;;10.93;9.32;;;3.00;99.90;;;;;;7337499;19;20400;-81
2021/11/13 02:34:28;;;;;;;17.55;11.75;;;2.80;99.90;;;;;;7257638;19;2004423;-81
2021/11/13 02:36:59;;;;;;;15.90;10.65;;;2.80;99.90;;;;;;7365662;19;20356;-81
2021/11/13 02:39:36;;;;;;;13.82;9.93;;;2.80;99.90;;;;;;7356062;19;20313;-81
2021/11/13 02:42:14;;;;;;;16.42;10.70;;;2.80;99.90;;;;;;7262364;19;2004432;-81
2021/11/13 02:44:46;;;;;;;12.60;10.70;;;2.90;99.90;;;;;;7253635;19;2004525;-81
2021/11/13 02:47:22;;;;;;;13.02;11.05;;;2.70;99.90;;;;;;7268646;19;2004425;-81
2021/11/13 02:49:53;;;;;;;14.88;10.50;;;2.70;99.90;;;;;;7359139;19;20320;-81
2021/11/13 02:52:25;;;;;;;15.05;10.05;;;2.70;99.90;;;;;;7336503;19;20335;-81
2021/11/13 02:54:56;;;;;;;12.75;10.45;;;2.70;99.90;;;;;;7354942;19;20328;-81
2021/11/13 02:57:29;;;;;;;12.05;10.15;;;2.80;99.90;;;;;;7359488;19;20660;-80
2021/11/13 03:00:02;;;;;;;11.68;9.32;;;2.80;99.90;;;;;;7364402;19;20332;-81
2021/11/13 03:02:32;;;;;;;12.48;9.88;;;2.80;99.90;;;;;;7352043;19;20329;-80
2021/11/13 03:05:01;;;;;;;13.57;10.90;;;2.70;99.90;;;;;;7373421;19;20309;-81
2021/11/13 03:07:28;;;;;;;13.57;11.10;;;2.80;99.90;;;;;;7355416;19;20845;-81
2021/11/13 03:09:59;;;;;;;12.93;9.90;;;2.90;99.90;;;;;;7369118;19;20331;-81
2021/11/13 03:12:28;;;;;;;13.80;10.20;;;2.90;99.90;;;;;;7360693;19;20439;-81
2021/11/13 03:14:56;;;;;;;11.88;9.60;;;2.90;99.90;;;;;;7362994;19;20329;-81
2021/11/13 03:17:27;;;;;;;11.00;8.77;;;2.90;99.90;;;;;;7350549;19;20701;-81
2021/11/13 03:20:08;;;;;;;13.27;9.23;;;3.00;99.90;;;;;;7355699;19;20678;-81
2021/11/13 03:22:38;;;;;;;11.60;9.95;;;2.80;99.90;;;;;;7357437;19;20847;-81
2021/11/13 03:25:15;;;;;;;10.68;9.02;;;2.80;99.90;;;;;;7336892;19;20343;-81
2021/11/13 03:27:50;;;;;;;11.32;9.02;;;2.90;99.90;;;;;;7253809;19;2004326;-81
2021/11/13 03:30:28;;;;;;;12.77;9.67;;;2.90;99.90;;;;;;7266962;19;2004420;-81
2021/11/13 03:33:21;;;;;;;10.33;8.83;;;2.80;99.90;;;;;;7233805;19;2004324;-81
2021/11/13 03:35:53;;;;;;;12.67;9.10;;;2.90;99.90;;;;;;7354812;19;20859;-81
2021/11/13 03:38:29;;;;;;;10.48;9.32;;;2.90;99.90;;;;;;7370921;19;20324;-81
2021/11/13 03:41:08;;;;;;;13.80;9.18;;;2.90;99.90;;;;;;7249230;19;2004546;-81
2021/11/13 03:43:50;;;;;;;10.82;9.18;;;2.90;99.90;;;;;;7297385;19;20346;-81
2021/11/13 03:52:41;;;;;;;12.75;9.98;;;2.80;99.90;;;;;;7349833;19;20320;-80
2021/11/13 03:59:55;;;;;;;12.27;10.25;;;2.80;99.90;;;;;;7424590;19;20355;-82
2021/11/13 04:02:49;;;;;;;11.32;9.07;;;2.80;99.90;;;;;;7330606;19;20320;-80
2021/11/13 04:05:23;;;;;;;12.23;9.32;;;2.80;99.90;;;;;;7213259;19;2004469;-80
2021/11/13 04:08:49;;;;;;;11.50;8.55;;;2.60;99.90;;;;;;7328654;19;20387;-81
2021/11/13 04:11:55;;;;;;;10.38;8.73;;;2.60;99.90;;;;;;7098810;19;2004444;-79
2021/11/13 04:15:27;;;;;;;11.50;8.48;;;2.80;99.90;;;;;;7090260;19;2004304;-80
2021/11/13 05:01:51;;;;;;;9.50;7.55;;;2.80;99.90;;;;;;6971369;19;2004395;-81
2021/11/13 05:19:37;;;;;;;9.52;7.78;;;2.80;99.90;;;;;;7368618;19;20346;-81
2021/11/13 05:22:05;;;;;;;8.25;7.43;;;2.80;99.90;;;;;;7362904;19;20337;-81
2021/11/13 05:24:33;;;;;;;9.40;7.33;;;2.80;99.90;;;;;;7357280;19;20348;-81
2021/11/13 05:27:01;;;;;;;11.93;8.67;;;2.80;99.90;;;;;;7355752;19;20313;-81
2021/11/13 05:29:28;;;;;;;9.57;7.97;;;2.80;99.90;;;;;;7367338;19;21745;-81
2021/11/13 05:31:59;;;;;;;12.18;8.13;;;2.90;99.90;;;;;;7347879;19;20328;-81
2021/11/13 05:34:30;;;;;;;10.90;7.65;;;2.90;99.90;;;;;;7362261;19;20358;-81
2021/11/13 05:36:59;;;;;;;8.77;7.60;;;2.80;99.90;;;;;;7367917;19;20345;-81
2021/11/13 05:39:31;;;;;;;8.70;7.20;;;2.80;99.90;;;;;;7363791;19;20477;-81
2021/11/13 05:42:00;;;;;;;8.93;6.88;;;2.90;99.90;;;;;;7361218;19;20328;-81
2021/11/13 05:44:30;;;;;;;8.85;7.95;;;2.90;99.90;;;;;;7336789;19;20347;-81
2021/11/13 05:47:00;;;;;;;8.73;7.43;;;2.80;99.90;;;;;;7341541;19;20336;-81
2021/11/13 05:49:37;;;;;;;8.40;6.95;;;2.80;99.90;;;;;;7268658;19;2004367;-81
2021/11/13 05:52:07;;;;;;;8.57;7.68;;;2.80;99.90;;;;;;7360131;19;20324;-81
2021/11/13 05:54:35;;;;;;;8.07;7.28;;;2.70;99.90;;;;;;7360933;19;20422;-81
2021/11/13 05:57:03;;;;;;;8.25;7.35;;;2.70;99.90;;;;;;7351874;19;20359;-81
2021/11/13 05:59:38;;;;;;;11.93;8.17;;;2.70;99.90;;;;;;7368188;19;20939;-81
2021/11/13 06:02:06;;;;;;;8.80;7.18;;;2.80;99.90;;;;;;7361096;19;20883;-81
2021/11/13 06:04:39;;;;;;;8.95;7.20;;;2.70;99.90;;;;;;7333405;19;20328;-81
2021/11/13 06:13:15;;;;;;;8.40;7.60;;;2.80;99.90;;;;;;7358714;19;21468;-81
2021/11/13 06:15:47;;;;;;;9.57;6.88;;;2.50;99.90;;;;;;7365063;19;20321;-81
2021/11/13 06:18:20;;;;;;;8.70;7.80;;;2.70;99.90;;;;;;7366720;19;20325;-81
2021/11/13 06:20:54;;;;;;;13.38;8.98;;;2.70;99.90;;;;;;7355407;19;20338;-80
2021/11/13 06:23:23;;;;;;;9.85;8.85;;;2.70;99.90;;;;;;7365807;19;20724;-81
2021/11/13 06:29:24;;;;;;;8.68;7.70;;;2.70;99.90;;;;;;7351290;19;20312;-82
2021/11/13 06:31:50;;;;;;;7.40;6.38;;;2.70;99.90;;;;;;7407985;19;20375;-81
2021/11/13 06:36:54;;;;;;;8.85;7.53;;;2.80;99.90;;;;;;7361174;19;20408;-81
2021/11/13 06:39:24;;;;;;;8.60;7.50;;;2.90;99.90;;;;;;7370688;19;20341;-81
2021/11/13 06:45:51;;;;;;;9.13;8.23;;;2.90;99.90;;;;;;7421536;19;20350;-82
2021/11/13 06:56:22;;;;;;;9.38;8.18;;;3.10;99.90;;;;;;7392735;19;20995;-82
2021/11/13 06:59:00;;;;;;;7.95;6.72;;;3.20;99.90;;;;;;7244184;19;2004293;-82
2021/11/13 07:01:32;;;;;;;5.95;5.35;;;3.30;99.90;;;;;;7371775;19;20315;-82
2021/11/13 07:04:03;;;;;;;9.03;7.07;;;3.30;99.90;;;;;;7369833;19;20346;-82
2021/11/13 07:06:35;;;;;;;7.20;5.97;;;3.40;99.90;;;;;;7345463;19;20333;-82
2021/11/13 07:09:10;;;;;;;7.38;6.60;;;3.40;99.90;;;;;;7344970;19;20333;-82
2021/11/13 07:11:41;;;;;;;9.13;7.80;;;3.50;99.90;;;;;;7330590;19;20336;-82
2021/11/13 07:14:11;;;;;;;6.40;5.80;;;3.60;99.90;;;;;;7349812;19;20337;-82
2021/11/13 07:19:48;;;;;;;7.20;6.38;;;3.60;99.90;;;;;;7346181;19;20344;-80
2021/11/13 07:22:31;;;;;;;8.05;7.22;;;3.70;99.90;;;;;;7320694;19;20488;-80
2021/11/13 07:25:14;;;;;;;6.07;5.47;;;3.70;99.90;;;;;;7230553;19;2004176;-81
2021/11/13 07:27:46;;;;;;;9.38;7.68;;;3.80;99.90;;;;;;7255030;19;2004391;-81
2021/11/13 07:30:25;;;;;;;8.48;6.43;;;3.80;99.90;;;;;;7364559;19;20313;-81
2021/11/13 07:32:54;;;;;;;8.53;7.63;;;3.90;99.90;;;;;;7367845;19;20339;-81
2021/11/13 07:35:27;;;;;;;8.18;6.57;;;3.90;99.90;;;;;;7349978;19;20359;-81
2021/11/13 07:37:58;;;;;;;7.68;6.00;;;3.90;99.90;;;;;;7371967;19;20332;-81
2021/11/13 07:40:51;;;;;;;6.90;6.07;;;4.00;99.90;;;;;;7323196;19;20321;-81
2021/11/13 07:43:55;;;;;;;7.53;6.67;;;4.10;99.90;;;;;;7183811;19;2004439;-82
2021/11/13 07:46:30;;;;;;;6.50;5.85;;;4.00;99.90;;;;;;7333089;19;20437;-80
2021/11/13 07:48:58;;;;;;;7.87;6.30;;;4.20;99.90;;;;;;7348184;19;20344;-80
2021/11/13 07:51:25;;;;;;;6.80;5.70;;;4.30;99.90;;;;;;7364002;19;20421;-80
2021/11/13 07:53:54;;;;;;;8.55;6.68;;;4.30;99.90;;;;;;7368965;19;20315;-80
2021/11/13 07:56:21;;;;;;;8.68;7.45;;;4.40;99.90;;;;;;7359672;19;20360;-81
2021/11/13 07:59:01;;;;;;;9.95;6.72;;;4.40;99.90;;;;;;7345674;19;20347;-78
2021/11/13 08:01:47;;;;;;;8.93;6.60;;;4.50;99.90;;;;;;7318782;19;20344;-79
2021/11/13 08:04:34;;;;;;;8.35;6.50;;;4.50;99.90;;;;;;7226967;19;2004421;-79
2021/11/13 08:07:53;;;;;;;10.65;8.27;;;4.60;99.90;;;;;;7212860;19;2004270;-79
2021/11/13 08:10:53;;;;;;;8.43;6.93;;;4.60;99.90;;;;;;7203911;19;2004204;-79
2021/11/13 08:13:40;;;;;;;7.30;6.55;;;4.60;99.90;;;;;;7227512;19;2005313;-79
2021/11/13 08:16:21;;;;;;;7.82;6.28;;;4.70;99.90;;;;;;7350673;19;20436;-79
2021/11/13 08:18:55;;;;;;;8.52;6.55;;;4.70;99.90;;;;;;7254535;19;2004415;-79
2021/11/13 08:21:32;;;;;;;7.70;6.00;;;4.80;99.90;;;;;;7341552;19;20347;-78
2021/11/13 08:24:17;;;;;;;7.63;6.85;;;4.80;99.90;;;;;;7296404;19;20326;-79
2021/11/13 08:26:49;;;;;;;5.60;5.05;;;4.80;99.90;;;;;;7326619;19;20349;-80
2021/11/13 08:29:24;;;;;;;6.65;5.65;;;4.90;99.90;;;;;;7308519;19;20333;-79
2021/11/13 08:31:55;;;;;;;7.55;6.30;;;5.00;99.90;;;;;;7329370;19;20332;-78
2021/11/13 08:38:19;;;;;;;6.43;5.82;;;5.10;99.90;;;;;;7354611;19;20387;-78
2021/11/13 08:40:51;;;;;;;7.15;6.45;;;5.20;99.90;;;;;;7363053;19;20328;-78
2021/11/13 08:43:19;;;;;;;8.13;7.25;;;5.20;99.90;;;;;;7358321;19;20347;-79
2021/11/13 08:45:47;;;;;;;7.68;6.53;;;5.30;99.90;;;;;;7363641;19;20333;-77
2021/11/13 08:48:15;;;;;;;6.85;6.25;;;5.30;99.90;;;;;;7360542;19;20663;-78
2021/11/13 08:50:42;;;;;;;6.63;6.00;;;5.40;99.90;;;;;;7364250;19;20329;-79
2021/11/13 08:53:18;;;;;;;10.07;6.75;;;5.40;99.90;;;;;;7368328;19;20348;-77
2021/11/13 08:55:47;;;;;;;9.20;8.30;;;5.40;99.90;;;;;;7360720;19;20879;-77
2021/11/13 08:58:14;;;;;;;9.35;6.68;;;5.40;99.90;;;;;;7360516;19;21149;-80
2021/11/13 09:00:50;;;;;;;9.77;8.03;;;5.40;99.90;;;;;;7354194;19;21177;-80
2021/11/13 09:03:24;;;;;;;11.07;7.72;;;5.40;99.90;;;;;;7242557;19;2004526;-78
2021/11/13 09:05:52;;;;;;;9.73;8.00;;;5.50;99.90;;;;;;7251924;19;2004477;-78
2021/11/13 09:08:19;;;;;;;8.45;7.10;;;5.50;99.90;;;;;;7357922;19;20337;-78
2021/11/13 09:10:48;;;;;;;6.97;6.28;;;5.60;99.90;;;;;;7352235;19;20320;-76
2021/11/13 09:13:17;;;;;;;10.35;8.40;;;5.60;99.90;;;;;;7367388;19;20333;-78
2021/11/13 09:15:44;;;;;;;10.32;7.88;;;5.60;99.90;;;;;;7353146;19;20332;-78
2021/11/13 09:18:13;;;;;;;10.00;6.25;;;5.70;99.90;;;;;;7359559;19;21644;-78
2021/11/13 09:20:41;;;;;;;8.60;7.70;;;5.70;99.90;;;;;;7352629;19;20337;-78
2021/11/13 09:23:09;;;;;;;10.43;8.55;;;5.80;99.90;;;;;;7360026;19;20308;-77
2021/11/13 09:25:37;;;;;;;9.15;7.50;;;5.80;99.90;;;;;;7356641;19;20361;-79
2021/11/13 09:28:05;;;;;;;8.77;7.72;;;5.90;99.90;;;;;;7335509;19;20707;-78
2021/11/13 09:30:33;;;;;;;8.43;7.35;;;5.90;99.90;;;;;;7354722;19;20336;-78
2021/11/13 09:33:01;;;;;;;7.95;6.82;;;5.90;99.90;;;;;;7358124;19;20369;-78
2021/11/13 09:35:30;;;;;;;9.83;8.03;;;6.00;99.90;;;;;;7359047;19;20345;-78
2021/11/13 09:37:58;;;;;;;10.55;7.95;;;6.00;99.90;;;;;;7360088;19;21081;-78
2021/11/13 09:40:27;;;;;;;8.18;7.30;;;6.10;99.90;;;;;;7339294;19;20360;-79
2021/11/13 09:42:56;;;;;;;10.30;8.93;;;6.10;99.90;;;;;;7369738;19;20343;-78
2021/11/13 09:45:25;;;;;;;8.38;7.38;;;6.10;99.90;;;;;;7361628;19;20457;-79
2021/11/13 09:47:54;;;;;;;14.25;9.60;;;6.20;99.90;;;;;;7374260;19;20391;-81
2021/11/13 09:50:22;;;;;;;9.30;7.70;;;6.30;99.90;;;;;;7368765;19;20346;-79
2021/11/13 09:52:50;;;;;;;11.05;9.18;;;6.30;99.90;;;;;;7372832;19;20839;-79
2021/11/13 09:55:19;;;;;;;10.27;8.32;;;6.40;99.90;;;;;;7374206;19;20737;-79
2021/11/13 09:57:49;;;;;;;10.40;7.90;;;6.50;99.90;;;;;;7364394;19;20352;-79
2021/11/13 10:00:23;;;;;;;9.07;7.68;;;6.50;99.90;;;;;;7368114;19;20355;-78
2021/11/13 10:02:52;;;;;;;8.63;7.53;;;6.60;99.90;;;;;;7355282;19;20331;-79
2021/11/13 10:05:22;;;;;;;7.32;6.50;;;6.70;99.90;;;;;;7374681;19;20364;-79
2021/11/13 10:07:49;;;;;;;8.93;7.82;;;6.90;99.90;;;;;;7362388;19;20316;-78
2021/11/13 10:10:33;;;;;;;8.18;7.15;;;7.00;99.90;;;;;;7366170;19;20320;-79
2021/11/13 10:13:00;;;;;;;8.18;7.28;;;7.10;99.90;;;;;;7370935;19;20320;-78
2021/11/13 10:15:37;;;;;;;7.57;6.82;;;7.20;99.90;;;;;;7372783;19;20431;-79
2021/11/13 10:18:14;;;;;;;10.25;7.60;;;7.40;99.90;;;;;;7363574;19;20373;-79
2021/11/13 10:21:03;;;;;;;8.30;7.40;;;7.50;99.90;;;;;;7373370;19;20349;-79
2021/11/13 10:23:37;;;;;;;8.63;7.40;;;7.70;99.90;;;;;;7366909;19;21116;-79
2021/11/13 10:26:19;;;;;;;11.00;8.88;;;7.80;99.90;;;;;;7365359;19;20503;-79
2021/11/13 10:28:52;;;;;;;7.95;7.15;;;7.80;99.90;;;;;;7365779;19;20357;-79
2021/11/13 10:31:26;;;;;;;8.23;7.43;;;7.80;99.90;;;;;;7348948;19;20313;-79
2021/11/13 10:33:54;;;;;;;12.77;9.53;;;7.80;99.90;;;;;;7373890;19;20383;-79
2021/11/13 10:36:28;;;;;;;9.00;8.10;;;7.80;99.90;;;;;;7334282;19;20440;-79
2021/11/13 10:39:20;;;;;;;9.40;7.00;;;7.90;99.90;;;;;;7366260;19;20312;-79
2021/11/13 10:41:54;;;;;;;8.83;6.90;;;7.90;99.90;;;;;;7333761;19;20345;-79
2021/11/13 10:44:33;;;;;;;10.55;7.22;;;8.00;99.90;;;;;;7359823;19;20353;-79
2021/11/13 10:47:36;;;;;;;9.90;7.25;;;8.20;99.90;;;;;;7350773;19;20356;-79
2021/11/13 10:50:21;;;;;;;10.05;7.75;;;8.30;99.90;;;;;;7254147;19;2004490;-79
2021/11/13 10:53:09;;;;;;;8.35;7.43;;;8.40;99.90;;;;;;7361098;19;20348;-79
2021/11/13 10:56:00;;;;;;;7.30;6.60;;;8.40;99.90;;;;;;7261077;19;2004450;-79
2021/11/13 10:58:56;;;;;;;8.43;7.30;;;8.50;99.90;;;;;;7264163;19;2004381;-79
2021/11/13 11:01:40;;;;;;;8.23;7.20;;;8.70;99.90;;;;;;7350331;19;20358;-78
2021/11/13 11:04:19;;;;;;;7.80;7.03;;;8.90;99.90;;;;;;7319194;19;20371;-78
2021/11/13 11:07:20;;;;;;;6.63;5.93;;;9.00;99.90;;;;;;7236302;19;2004725;-78
2021/11/13 11:10:15;;;;;;;7.93;6.90;;;9.20;99.90;;;;;;7199760;19;2004418;-79
2021/11/13 11:12:46;;;;;;;8.27;6.65;;;9.30;99.90;;;;;;7328990;19;20348;-79
2021/11/13 11:15:17;;;;;;;7.95;6.85;;;9.50;99.90;;;;;;7323253;19;20377;-78
2021/11/13 11:17:59;;;;;;;6.50;5.72;;;9.50;99.90;;;;;;7316006;19;20345;-78
2021/11/13 11:20:34;;;;;;;7.75;6.95;;;9.70;99.90;;;;;;7318468;19;20351;-80
2021/11/13 11:23:37;;;;;;;9.38;7.30;;;9.70;99.90;;;;;;7364619;19;20337;-79
2021/11/13 11:26:15;;;;;;;7.57;6.35;;;9.70;99.90;;;;;;7237149;19;2004355;-79
2021/11/13 11:29:00;;;;;;;9.03;6.57;;;9.90;99.90;;;;;;7247382;19;2004332;-79
2021/11/13 11:31:48;;;;;;;7.72;6.40;;;10.10;99.90;;;;;;7234945;19;20366;-79
2021/11/13 11:34:38;;;;;;;5.95;5.20;;;10.30;99.90;;;;;;7322216;19;20893;-79
2021/11/13 11:42:10;;;;;;;6.57;5.57;;;10.30;99.90;;;;;;7305864;19;20335;-80
2021/11/13 11:45:17;;;;;;;6.88;5.53;;;10.50;99.90;;;;;;7174538;19;2004236;-79
2021/11/13 11:49:07;;;;;;;6.72;5.53;;;10.50;99.90;;;;;;7367911;19;20840;-79
2021/11/13 11:51:46;;;;;;;5.90;5.20;;;10.40;99.90;;;;;;7258112;19;20329;-79
2021/11/13 11:54:36;;;;;;;11.20;5.40;;;10.30;99.90;;;;;;7355817;19;20363;-79
2021/11/13 11:57:07;;;;;;;5.68;4.68;;;10.30;99.90;;;;;;7204611;19;2004467;-79
2021/11/13 12:03:02;;;;;;;11.50;9.45;;;10.40;99.90;;;;;;7169360;19;2004504;-79
2021/11/13 12:05:54;;;;;;;5.85;5.15;;;10.60;99.90;;;;;;7194748;19;2004510;-79
2021/11/13 12:08:33;;;;;;;6.78;4.85;;;10.90;99.90;;;;;;7369880;19;20336;-79
2021/11/13 12:11:26;;;;;;;5.22;4.55;;;11.00;99.90;;;;;;7353204;19;20312;-79
2021/11/13 12:14:32;;;;;;;5.30;4.80;;;11.00;99.90;;;;;;7212878;19;2004406;-79
2021/11/13 12:17:34;;;;;;;5.10;4.60;;;10.90;99.90;;;;;;7196163;19;2004215;-79
2021/11/13 12:21:11;;;;;;;4.85;4.35;;;10.90;99.90;;;;;;7087751;19;2004447;-79
2021/11/13 12:24:22;;;;;;;6.70;5.47;;;11.00;99.90;;;;;;7075851;19;2004738;-79
2021/11/13 12:27:10;;;;;;;5.10;3.90;;;10.90;99.90;;;;;;7227010;19;2004428;-79
2021/11/13 12:30:07;;;;;;;5.10;4.60;;;10.80;99.90;;;;;;7212042;19;2004410;-79
2021/11/13 12:33:00;;;;;;;4.20;3.80;;;10.70;99.90;;;;;;7241309;19;2004793;-79
2021/11/13 12:36:18;;;;;;;4.50;4.10;;;10.80;99.90;;;;;;7223724;19;2004432;-79
2021/11/13 12:39:07;;;;;;;6.78;6.07;;;10.80;99.90;;;;;;7131523;19;2004532;-79
2021/11/13 12:41:49;;;;;;;6.30;5.50;;;10.80;99.90;;;;;;7333565;19;20336;-79
2021/11/13 12:45:15;;;;;;;4.80;4.40;;;10.90;99.90;;;;;;7237077;19;2004513;-79
2021/11/13 12:47:49;;;;;;;5.60;4.50;;;10.80;99.90;;;;;;7237670;19;2004477;-79
2021/11/13 12:50:30;;;;;;;4.15;3.70;;;10.80;99.90;;;;;;7353405;19;20331;-79
2021/11/13 12:53:00;;;;;;;4.85;4.07;;;10.90;99.90;;;;;;7348872;19;20353;-79
2021/11/13 12:56:16;;;;;;;5.03;4.30;;;10.90;99.90;;;;;;7312263;19;20341;-79
2021/11/13 12:59:00;;;;;;;5.78;4.97;;;10.90;99.90;;;;;;7327138;19;20348;-79
2021/11/13 13:01:36;;;;;;;4.22;3.83;;;10.90;99.90;;;;;;7347243;19;20332;-78
2021/11/13 13:04:12;;;;;;;3.85;3.55;;;10.90;99.90;;;;;;7343543;19;20349;-79
2021/11/13 13:07:05;;;;;;;4.70;3.55;;;10.90;99.90;;;;;;7366908;19;20368;-79
2021/11/13 13:09:36;;;;;;;3.83;3.53;;;10.80;99.90;;;;;;7240989;19;2004499;-78
2021/11/13 13:12:08;;;;;;;5.45;3.97;;;10.90;99.90;;;;;;7263108;19;2004451;-80
2021/11/13 13:14:41;;;;;;;4.55;3.65;;;10.90;99.90;;;;;;7367231;19;20742;-81
2021/11/13 13:17:09;;;;;;;4.32;3.85;;;10.80;99.90;;;;;;7356784;19;20784;-78
2021/11/13 13:19:40;;;;;;;5.60;4.23;;;10.90;99.90;;;;;;7357348;19;20363;-81
2021/11/13 13:22:20;;;;;;;3.50;3.20;;;10.80;99.90;;;;;;7364198;19;20336;-81
2021/11/13 13:25:10;;;;;;;;;;;;;;;;;;;;;
2021/11/13 13:27:43;;;;;;;3.70;3.40;;;10.80;99.90;;;;;;7314625;19;20348;-78
2021/11/13 13:30:16;;;;;;;4.50;3.43;;;10.80;99.90;;;;;;7353065;19;20325;-79
2021/11/13 13:32:53;;;;;;;3.88;3.55;;;10.80;99.90;;;;;;7321537;19;20344;-79
2021/11/13 13:35:34;;;;;;;3.83;3.42;;;10.70;99.90;;;;;;7335958;19;20336;-79
2021/11/13 13:38:39;;;;;;;3.80;3.40;;;10.70;99.90;;;;;;7331924;19;20717;-78
2021/11/13 13:41:28;;;;;;;3.83;3.45;;;10.70;99.90;;;;;;7201492;19;2004426;-78
2021/11/13 13:44:16;;;;;;;4.93;4.35;;;10.70;99.90;;;;;;7309130;19;20343;-79
2021/11/13 13:47:01;;;;;;;5.22;4.60;;;10.70;99.90;;;;;;7228033;19;2004228;-79
2021/11/13 13:49:33;;;;;;;7.63;6.63;;;10.70;99.90;;;;;;7230994;19;2004306;-81
2021/11/13 13:52:13;;;;;;;6.95;5.78;;;10.70;99.90;;;;;;7309670;19;20333;-80
2021/11/13 13:54:54;;;;;;;4.70;4.25;;;10.70;99.90;;;;;;7231294;19;2004351;-81
2021/11/13 13:57:55;;;;;;;5.35;4.57;;;10.70;99.90;;;;;;7341256;19;20326;-81
2021/11/13 14:00:30;;;;;;;3.73;3.10;;;10.70;99.90;;;;;;7248800;19;2004306;-81
2021/11/13 14:03:08;;;;;;;3.80;3.40;;;10.70;99.90;;;;;;7182852;19;2004558;-81
2021/11/13 14:05:43;;;;;;;4.57;3.55;;;10.60;99.90;;;;;;7129689;19;2004283;-79
2021/11/13 14:08:17;;;;;;;5.05;4.10;;;10.60;99.90;;;;;;7329918;19;20274;-78
2021/11/13 14:10:56;;;;;;;5.28;3.65;;;10.50;99.90;;;;;;7352855;19;20368;-79
2021/11/13 14:13:47;;;;;;;4.70;3.50;;;10.40;99.90;;;;;;7202335;19;2004480;-79
2021/11/13 14:16:16;;;;;;;4.28;3.80;;;10.30;99.90;;;;;;7307717;19;20324;-79
2021/11/13 14:18:54;;;;;;;4.22;3.58;;;10.30;99.90;;;;;;7237653;19;2004317;-79
2021/11/13 14:21:33;;;;;;;3.75;3.45;;;10.30;99.90;;;;;;7224989;19;2004465;-78
2021/11/13 14:24:34;;;;;;;6.57;3.90;;;10.30;99.90;;;;;;7323613;19;20365;-80
2021/11/13 14:27:09;;;;;;;4.03;3.63;;;10.30;99.90;;;;;;7336512;19;20432;-80
2021/11/13 14:29:55;;;;;;;3.92;3.15;;;10.20;99.90;;;;;;7279637;19;20376;-79
2021/11/13 14:33:13;;;;;;;3.50;3.20;;;10.20;99.90;;;;;;7147507;19;2004209;-80
2021/11/13 14:35:55;;;;;;;3.08;2.78;;;10.20;99.90;;;;;;7210835;19;2004508;-79
2021/11/13 14:38:25;;;;;;;3.72;3.40;;;10.20;99.90;;;;;;7350967;19;20844;-78
2021/11/13 14:41:00;;;;;;;4.28;3.85;;;10.20;99.90;;;;;;7356719;19;20328;-79
2021/11/13 14:43:30;;;;;;;3.53;3.23;;;10.10;99.90;;;;;;7243926;19;2004368;-79
2021/11/13 14:45:58;;;;;;;5.15;3.45;;;10.20;99.90;;;;;;7344815;19;20340;-80
2021/11/13 14:48:26;;;;;;;4.15;3.72;;;10.20;99.90;;;;;;7352033;19;20351;-79
2021/11/13 14:50:57;;;;;;;3.25;2.78;;;10.20;99.90;;;;;;7326688;19;20331;-79
2021/11/13 14:53:33;;;;;;;4.95;3.95;;;10.20;99.90;;;;;;7370237;19;21074;-80
2021/11/13 14:56:14;;;;;;;4.00;3.55;;;10.10;99.90;;;;;;7268283;19;2004315;-79
2021/11/13 14:59:08;;;;;;;4.78;3.92;;;9.90;99.90;;;;;;7205587;19;2004392;-79
2021/11/13 15:02:01;;;;;;;4.57;4.18;;;9.90;99.90;;;;;;7405097;19;20356;-80
2021/11/13 15:04:55;;;;;;;4.83;4.20;;;9.70;99.90;;;;;;7268731;19;2004442;-78
2021/11/13 15:08:37;;;;;;;4.53;4.03;;;9.60;99.90;;;;;;7172465;19;2004233;-79
2021/11/13 15:22:49;;;;;;;5.03;4.15;;;9.30;99.90;;;;;;7416061;19;20356;-78
2021/11/13 16:54:32;;;;;;;7.55;5.78;;;8.60;99.90;;;;;;7401323;19;20354;-79
2021/11/13 16:57:28;;;;;;;5.30;4.35;;;8.60;99.90;;;;;;7372829;19;20324;-80
2021/11/13 16:59:58;;;;;;;5.40;4.38;;;8.60;99.90;;;;;;7340799;19;20308;-81
2021/11/13 17:02:27;;;;;;;5.18;4.18;;;8.60;99.90;;;;;;7369366;19;20869;-80
2021/11/13 17:04:59;;;;;;;4.97;4.47;;;8.60;99.90;;;;;;7363946;19;20332;-80
2021/11/13 17:07:27;;;;;;;5.53;4.63;;;8.60;99.90;;;;;;7355588;19;20787;-81
2021/11/13 17:09:59;;;;;;;4.47;4.07;;;8.70;99.90;;;;;;7365863;19;20305;-80
2021/11/13 17:12:31;;;;;;;4.70;4.30;;;8.60;99.90;;;;;;7348850;19;20337;-81
2021/11/13 17:15:06;;;;;;;5.25;4.55;;;8.60;99.90;;;;;;7368371;19;20339;-80
2021/11/13 17:17:34;;;;;;;5.60;4.60;;;8.50;99.90;;;;;;7356324;19;20381;-80
2021/11/13 17:20:07;;;;;;;7.57;5.93;;;8.50;99.90;;;;;;7352976;19;20419;-81
2021/11/13 17:22:40;;;;;;;7.53;6.50;;;8.40;99.90;;;;;;7365569;19;20724;-80
2021/11/13 17:25:14;;;;;;;6.13;5.32;;;8.40;99.90;;;;;;7262038;19;2004474;-80
2021/11/13 17:27:49;;;;;;;5.85;5.25;;;8.30;99.90;;;;;;7314146;19;20409;-80
2021/11/13 17:30:24;;;;;;;5.82;5.22;;;8.30;99.90;;;;;;7331157;19;20929;-80
2021/11/13 17:32:58;;;;;;;7.03;6.32;;;8.30;99.90;;;;;;7374160;19;20353;-81
2021/11/13 17:35:26;;;;;;;8.38;7.57;;;8.30;99.90;;;;;;7366718;19;20359;-81
2021/11/13 17:37:55;;;;;;;9.88;7.20;;;8.30;99.90;;;;;;7372399;19;20325;-80
2021/11/13 17:40:40;;;;;;;10.67;8.50;;;8.30;99.90;;;;;;7380312;19;20317;-80
2021/11/13 17:43:10;;;;;;;8.20;6.05;;;8.20;99.90;;;;;;7257115;19;2004444;-81
2021/11/13 17:45:45;;;;;;;7.40;5.40;;;8.20;99.90;;;;;;7371720;19;20372;-81
2021/11/13 17:48:15;;;;;;;5.68;4.72;;;8.20;99.90;;;;;;7335653;19;20301;-81
2021/11/13 17:50:46;;;;;;;5.57;5.03;;;8.20;99.90;;;;;;7348172;19;20648;-80
2021/11/13 17:53:19;;;;;;;5.47;4.95;;;8.30;99.90;;;;;;7323901;19;20336;-80
2021/11/13 17:55:51;;;;;;;7.57;5.50;;;8.30;99.90;;;;;;7346360;19;20349;-81
2021/11/13 17:58:44;;;;;;;7.85;5.38;;;8.30;99.90;;;;;;7351009;19;20332;-80
2021/11/13 18:01:32;;;;;;;5.65;5.15;;;8.30;99.90;;;;;;7321817;19;20327;-80
2021/11/13 18:04:06;;;;;;;6.03;4.95;;;8.30;99.90;;;;;;7309123;19;20474;-80
2021/11/13 18:06:39;;;;;;;5.40;4.57;;;8.30;99.90;;;;;;7340448;19;20336;-80
2021/11/13 18:09:16;;;;;;;5.60;4.97;;;8.20;99.90;;;;;;7351899;19;20320;-80
2021/11/13 18:11:57;;;;;;;10.13;7.60;;;8.60;99.90;;;;;;7311359;19;20396;-81
2021/11/13 18:14:46;;;;;;;13.10;10.55;;;8.40;99.90;;;;;;7231181;19;2004938;-80
2021/11/13 18:17:29;;;;;;;6.90;5.03;;;8.30;99.90;;;;;;7229380;19;2004442;-80
2021/11/13 18:20:13;;;;;;;6.03;5.43;;;8.30;99.90;;;;;;7328712;19;20362;-82
2021/11/13 18:22:49;;;;;;;5.72;4.85;;;8.30;99.90;;;;;;7327474;19;20364;-80
2021/11/13 18:25:29;;;;;;;7.55;5.57;;;8.30;99.90;;;;;;7310541;19;20394;-80
2021/11/13 18:28:14;;;;;;;6.53;4.85;;;8.20;99.90;;;;;;7294906;19;20377;-80
2021/11/13 18:30:50;;;;;;;5.32;4.82;;;8.10;99.90;;;;;;7338647;19;20709;-81
2021/11/13 18:33:34;;;;;;;5.32;4.82;;;8.00;99.90;;;;;;7346775;19;20481;-80
2021/11/13 18:36:19;;;;;;;6.28;4.75;;;8.10;99.90;;;;;;7213090;19;2004503;-80
2021/11/13 18:39:05;;;;;;;6.40;5.80;;;8.00;99.90;;;;;;7335357;19;20886;-81
2021/11/13 18:41:36;;;;;;;6.43;4.82;;;8.00;99.90;;;;;;7343024;19;20404;-80
2021/11/13 18:44:06;;;;;;;6.47;5.05;;;7.90;99.90;;;;;;7345922;19;20336;-80
2021/11/13 18:46:43;;;;;;;6.68;5.05;;;7.90;99.90;;;;;;7289317;19;20330;-80
2021/11/13 18:49:19;;;;;;;5.85;5.32;;;8.00;99.90;;;;;;7256156;19;2004309;-80
2021/11/13 18:51:57;;;;;;;4.70;4.28;;;7.80;99.90;;;;;;7262955;19;2004514;-80
2021/11/13 18:54:34;;;;;;;6.97;4.70;;;8.00;99.90;;;;;;7327716;19;20328;-80
2021/11/13 18:57:18;;;;;;;4.47;4.07;;;8.00;99.90;;;;;;7251702;19;2004473;-81
2021/11/13 18:59:53;;;;;;;4.77;4.27;;;8.00;99.90;;;;;;7249001;19;2004345;-81
2021/11/13 19:02:29;;;;;;;6.00;4.47;;;8.00;99.90;;;;;;7354326;19;20329;-81
2021/11/13 19:04:59;;;;;;;5.13;4.53;;;8.00;99.90;;;;;;7349204;19;20340;-80